Time;durP1;ratioP1;P1;durP2;ratioP2;P2;SDS_P1;SDS_P2;PMS_P1;PMS_P2;Temp;Humidity;BMP_temperature;BMP_pressure;BME280_temperature;BME280_humidity;BME280_pressure;Samples;Min_cycle;Max_cycle;Signal;HPM_P1;HPM_P2
2022/02/11 00:02:22;;;;;;;;;;;6.20;99.90;;;3.71;100.00;101109.91;5052627;28;20012;-88
2022/02/11 00:07:41;;;;;;;;;;;6.20;99.90;;;3.83;100.00;101100.00;4993519;28;19930;-87
2022/02/11 00:10:11;;;;;;;;;;;6.20;99.90;;;3.76;100.00;101115.78;5032188;28;19935;-87
2022/02/11 00:12:38;;;;;;;;;;;6.20;99.90;;;3.78;100.00;101100.38;5032143;28;19936;-87
2022/02/11 00:15:32;;;;;;;;;;;6.20;99.90;;;3.68;100.00;101112.88;5032541;28;19957;-88
2022/02/11 00:17:59;;;;;;;;;;;6.20;99.90;;;3.66;100.00;101109.47;5027565;28;19933;-88
2022/02/11 00:20:27;;;;;;;;;;;6.20;99.90;;;3.67;100.00;101093.16;5024085;28;19929;-87
2022/02/11 00:22:54;;;;;;;;;;;6.10;99.90;;;3.82;100.00;101099.13;5032151;28;19956;-86
2022/02/11 00:25:22;;;;;;;;;;;6.10;99.90;;;3.83;100.00;101111.63;5030658;28;20011;-87
2022/02/11 00:28:32;;;;;;;;;;;6.10;99.90;;;3.84;100.00;101105.25;5031535;28;19925;-87
2022/02/11 00:31:10;;;;;;;;;;;6.20;99.90;;;3.85;100.00;101104.28;5031530;28;20271;-87
2022/02/11 00:33:39;;;;;;;;;;;6.10;99.90;;;3.78;100.00;101097.69;5031849;28;19929;-87
2022/02/11 00:36:09;;;;;;;;;;;6.20;99.90;;;3.75;100.00;101097.06;5030234;28;19929;-87
2022/02/11 00:38:47;;;;;;;;;;;6.20;99.90;;;3.84;100.00;101102.56;5031529;28;20310;-88
2022/02/11 00:47:19;;;;;;;;;;;6.20;99.90;;;3.75;100.00;101106.03;5031554;28;19929;-86
2022/02/11 01:03:45;;;;;;;;;;;6.00;99.90;;;3.44;100.00;101127.31;5029460;28;19935;-86
2022/02/11 01:06:13;;;;;;;;;;;6.00;99.90;;;3.39;100.00;101120.59;5031289;28;19936;-87
2022/02/11 01:08:41;;;;;;;;;;;6.00;99.90;;;3.27;100.00;101126.00;5029348;28;20393;-87
2022/02/11 01:11:13;;;;;;;;;;;6.00;99.90;;;3.27;100.00;101125.13;5031141;28;20382;-87
2022/02/11 01:13:41;;;;;;;;;;;5.90;99.90;;;3.32;100.00;101114.88;5031481;28;20027;-87
2022/02/11 01:16:15;;;;;;;;;;;5.90;99.90;;;3.27;100.00;101114.38;5029364;28;19933;-87
2022/02/11 01:18:48;;;;;;;;;;;5.90;99.90;;;3.20;100.00;101114.03;5030864;28;19929;-87
2022/02/11 01:21:23;;;;;;;;;;;5.90;99.90;;;3.20;100.00;101116.72;5031205;28;19929;-87
2022/02/11 01:23:58;;;;;;;;;;;5.80;99.90;;;3.18;100.00;101110.59;5030918;28;19925;-87
2022/02/11 01:26:37;;;;;;;;;;;5.80;99.90;;;3.24;100.00;101101.19;5030938;28;19925;-87
2022/02/11 01:31:57;;;;;;;;;;;5.70;99.90;;;3.08;100.00;101110.44;5020235;28;20381;-87
2022/02/11 01:34:50;;;;;;;;;;;5.70;99.90;;;3.03;100.00;101109.13;5030761;28;19937;-87
2022/02/11 01:37:29;;;;;;;;;;;5.90;99.90;;;3.05;100.00;101089.19;5026093;28;19972;-87
2022/02/11 01:40:47;;;;;;;;;;;5.60;99.90;;;3.02;100.00;101086.75;5030339;28;20048;-87
2022/02/11 01:46:47;;;;;;;;;;;5.60;99.90;;;2.97;100.00;101106.91;4988457;28;20080;-87
2022/02/11 01:49:33;;;;;;;;;;;5.60;99.90;;;2.97;100.00;101099.72;4987399;28;19930;-86
2022/02/11 01:52:12;;;;;;;;;;;5.50;99.90;;;2.99;100.00;101103.13;5021501;28;20361;-87
2022/02/11 01:54:54;;;;;;;;;;;5.50;99.90;;;2.83;100.00;101105.31;5030477;28;19952;-86
2022/02/11 01:57:40;;;;;;;;;;;5.50;99.90;;;2.81;100.00;101107.25;5026707;28;20301;-87
2022/02/11 02:00:37;;;;;;;;;;;5.40;99.90;;;2.79;100.00;101106.53;5009905;28;19929;-87
2022/02/11 02:06:22;;;;;;;;;;;5.40;99.90;;;2.78;100.00;101107.50;4998904;28;19929;-87
2022/02/11 02:09:14;;;;;;;;;;;5.40;99.90;;;2.73;100.00;101100.66;5029852;28;20379;-87
2022/02/11 02:12:06;;;;;;;;;;;5.40;99.90;;;2.71;100.00;101097.22;5030101;28;20511;-87
2022/02/11 02:20:46;;;;;;;;;;;5.20;99.90;;;2.65;100.00;101089.66;4998536;28;19964;-87
2022/02/11 02:23:11;;;;;;;;;;;5.20;99.90;;;2.52;100.00;101094.25;5029833;28;19929;-87
2022/02/11 02:25:46;;;;;;;;;;;5.20;99.90;;;2.59;100.00;101086.56;5029596;28;19929;-86
2022/02/11 02:39:33;;;;;;;;;;;5.20;99.90;;;2.34;100.00;101077.72;5029199;28;19940;-87
2022/02/11 02:50:24;;;;;;;;;;;5.00;99.90;;;2.48;100.00;101084.72;5028007;28;19936;-87
2022/02/11 02:58:36;;;;;;;;;;;5.00;99.90;;;2.40;100.00;101087.13;5004210;28;19925;-87
2022/02/11 03:31:33;;;;;;;;;;;4.90;99.90;;;2.43;100.00;101087.75;4987865;28;19930;-87
2022/02/11 03:34:46;;;;;;;;;;;4.90;99.90;;;2.29;100.00;101075.38;5030996;28;19974;-87
2022/02/11 03:51:31;;;;;;;;;;;4.90;99.90;;;2.63;100.00;101099.66;5032312;28;19929;-87
2022/02/11 04:22:07;;;;;;;;;;;5.20;99.90;;;2.90;100.00;101118.16;5032440;28;19925;-87
2022/02/11 04:55:05;;;;;;;;;;;5.50;99.90;;;3.10;100.00;101137.22;4989208;28;19929;-87
2022/02/11 05:00:18;;;;;;;;;;;5.40;99.90;;;3.15;100.00;101136.88;5030575;28;19925;-87
2022/02/11 05:02:48;;;;;;;;;;;5.50;99.90;;;3.10;100.00;101135.41;5031179;28;19978;-86
2022/02/11 05:05:15;;;;;;;;;;;5.50;99.90;;;3.05;100.00;101137.59;5030870;28;19929;-86
2022/02/11 05:07:42;;;;;;;;;;;5.50;99.90;;;3.05;100.00;101148.38;5031239;28;19928;-87
2022/02/11 05:10:13;;;;;;;;;;;5.50;99.90;;;3.15;100.00;101147.66;5030081;28;19932;-87
2022/02/11 05:12:41;;;;;;;;;;;5.50;99.90;;;3.26;100.00;101150.34;5030695;28;19964;-92
2022/02/11 05:15:09;;;;;;;;;;;5.50;99.90;;;3.21;100.00;101157.91;5030183;28;19975;-91
2022/02/11 05:17:37;;;;;;;;;;;5.50;99.90;;;3.22;100.00;101164.97;5032288;28;19929;-88
2022/02/11 05:20:06;;;;;;;;;;;5.50;99.90;;;3.27;100.00;101157.41;5029800;28;19987;-92
2022/02/11 05:22:33;;;;;;;;;;;5.50;99.90;;;3.33;100.00;101148.84;5028870;28;20020;-89
2022/02/11 05:25:01;;;;;;;;;;;5.50;99.90;;;3.33;100.00;101147.03;5030299;28;19933;-89
2022/02/11 05:27:29;;;;;;;;;;;5.60;99.90;;;3.26;100.00;101151.19;5030381;28;20388;-89
2022/02/11 05:29:57;;;;;;;;;;;5.60;99.90;;;3.27;100.00;101158.25;5030209;28;20044;-90
2022/02/11 05:32:24;;;;;;;;;;;5.60;99.90;;;3.31;100.00;101151.69;5030079;28;19972;-89
2022/02/11 05:34:53;;;;;;;;;;;5.60;99.90;;;3.35;100.00;101165.75;5028578;28;20048;-89
2022/02/11 05:37:20;;;;;;;;;;;5.60;99.90;;;3.39;100.00;101172.59;5030463;28;20031;-91
2022/02/11 05:39:47;;;;;;;;;;;5.60;99.90;;;3.38;100.00;101170.88;5030180;28;19961;-90
2022/02/11 05:42:15;;;;;;;;;;;5.60;99.90;;;3.41;100.00;101167.97;5030833;28;19925;-92
2022/02/11 05:44:43;;;;;;;;;;;5.70;99.90;;;3.40;100.00;101160.84;5028842;28;20655;-92
2022/02/11 05:47:11;;;;;;;;;;;5.70;99.90;;;3.52;100.00;101191.28;5037432;28;19929;-93
2022/02/11 05:49:38;;;;;;;;;;;5.70;99.90;;;3.55;100.00;101198.28;5055020;23;19936;-82
2022/02/11 05:52:05;;;;;;;;;;;5.70;99.90;;;3.55;100.00;101203.66;5050176;28;20040;-81
2022/02/11 05:54:32;;;;;;;;;;;5.70;99.90;;;3.64;100.00;101186.78;5049995;28;20461;-80
2022/02/11 05:56:59;;;;;;;;;;;5.80;99.90;;;3.68;100.00;101188.25;5050588;28;20404;-81
2022/02/11 05:59:26;;;;;;;;;;;5.80;99.90;;;3.68;100.00;101183.72;5049318;28;19929;-81
2022/02/11 06:01:55;;;;;;;;;;;5.80;99.90;;;3.65;100.00;101192.03;5050145;28;19960;-81
2022/02/11 06:04:24;;;;;;;;;;;5.80;99.90;;;3.69;100.00;101203.41;5050218;28;19939;-81
2022/02/11 06:06:51;;;;;;;;;;;5.90;99.90;;;3.67;100.00;101203.53;5049750;28;20400;-81
2022/02/11 06:09:18;;;;;;;;;;;5.80;99.90;;;3.64;100.00;101213.72;5049159;28;19929;-82
2022/02/11 06:11:45;;;;;;;;;;;5.90;99.90;;;3.62;100.00;101207.59;5050096;28;19936;-82
2022/02/11 06:14:13;;;;;;;;;;;5.90;99.90;;;3.71;100.00;101209.53;5049544;28;19935;-79
2022/02/11 06:16:40;;;;;;;;;;;5.90;99.90;;;3.76;100.00;101228.88;5049837;28;20395;-82
2022/02/11 06:19:08;;;;;;;;;;;5.90;99.90;;;3.79;100.00;101225.94;5049714;28;19935;-81
2022/02/11 06:21:35;;;;;;;;;;;6.00;99.90;;;3.80;100.00;101233.00;5049785;28;20499;-80
2022/02/11 06:24:03;;;;;;;;;;;5.90;99.90;;;3.83;100.00;101246.25;5049869;28;20023;-82
2022/02/11 06:26:30;;;;;;;;;;;5.90;99.90;;;3.83;100.00;101250.78;5049792;28;19979;-82
2022/02/11 06:28:57;;;;;;;;;;;5.90;99.90;;;3.84;100.00;101247.09;5049246;28;19929;-80
2022/02/11 06:31:24;;;;;;;;;;;6.00;99.90;;;3.81;100.00;101242.81;5047804;28;19925;-82
2022/02/11 06:33:52;;;;;;;;;;;6.00;99.90;;;3.79;100.00;101260.06;5042658;28;19929;-83
2022/02/11 06:36:20;;;;;;;;;;;6.00;99.90;;;3.87;100.00;101271.94;5043488;28;20494;-82
2022/02/11 06:38:47;;;;;;;;;;;6.00;99.90;;;3.89;100.00;101261.91;5041408;28;19960;-82
2022/02/11 06:41:14;;;;;;;;;;;6.00;99.90;;;3.91;100.00;101270.72;5036113;28;19925;-82
2022/02/11 06:43:41;;;;;;;;;;;6.10;99.90;;;3.90;100.00;101279.78;5061023;28;20443;-82
2022/02/11 06:46:08;;;;;;;;;;;6.00;99.90;;;3.97;100.00;101290.06;5039933;28;19940;-82
2022/02/11 06:48:35;;;;;;;;;;;6.10;99.90;;;3.88;100.00;101292.53;5048994;28;19979;-82
2022/02/11 06:51:02;;;;;;;;;;;6.00;99.90;;;3.95;100.00;101303.66;5047221;28;19935;-82
2022/02/11 06:53:31;;;;;;;;;;;6.10;99.90;;;3.94;100.00;101306.44;5046545;28;19932;-82
2022/02/11 06:55:58;;;;;;;;;;;6.00;99.90;;;3.92;100.00;101312.84;5035890;28;20395;-82
2022/02/11 06:58:25;;;;;;;;;;;6.10;99.90;;;3.98;100.00;101324.94;5048891;28;19929;-82
2022/02/11 07:00:52;;;;;;;;;;;6.00;99.90;;;3.99;100.00;101317.72;5045961;28;20411;-82
2022/02/11 07:03:20;;;;;;;;;;;6.00;99.90;;;3.96;100.00;101331.41;5046409;28;20031;-82
2022/02/11 07:05:47;;;;;;;;;;;6.10;99.90;;;3.94;100.00;101345.03;5046081;28;19928;-80
2022/02/11 07:08:14;;;;;;;;;;;6.10;99.90;;;3.96;100.00;101331.41;5048646;28;20018;-82
2022/02/11 07:10:44;;;;;;;;;;;6.10;99.90;;;3.92;100.00;101353.22;5046195;28;20132;-82
2022/02/11 07:13:13;;;;;;;;;;;6.10;99.90;;;3.90;100.00;101357.88;5045170;28;19929;-82
2022/02/11 07:15:41;;;;;;;;;;;6.10;99.90;;;3.96;100.00;101358.34;5046388;28;19932;-82
2022/02/11 07:18:08;;;;;;;;;;;6.10;99.90;;;3.91;100.00;101367.66;5048611;28;20308;-82
2022/02/11 07:20:36;;;;;;;;;;;6.10;99.90;;;3.95;100.00;101367.44;5048692;28;20418;-82
2022/02/11 07:23:03;;;;;;;;;;;6.20;99.90;;;3.95;100.00;101372.81;5049221;28;19964;-80
2022/02/11 07:25:32;;;;;;;;;;;6.10;99.90;;;3.95;100.00;101379.03;5046211;28;20003;-83
2022/02/11 07:28:00;;;;;;;;;;;6.20;99.90;;;3.96;100.00;101375.38;5043718;28;19999;-83
2022/02/11 07:30:28;;;;;;;;;;;6.20;99.90;;;4.00;100.00;101397.53;5044988;28;19929;-80
2022/02/11 07:32:55;;;;;;;;;;;6.20;99.90;;;4.04;100.00;101388.25;5047927;28;20411;-80
2022/02/11 07:35:22;;;;;;;;;;;6.20;99.90;;;4.15;100.00;101396.34;5047415;28;19933;-81
2022/02/11 07:37:49;;;;;;;;;;;6.10;99.90;;;4.07;100.00;101399.66;5045759;28;20019;-81
2022/02/11 07:40:17;;;;;;;;;;;6.20;99.90;;;4.02;100.00;101409.06;5045231;28;19951;-81
2022/02/11 07:42:46;;;;;;;;;;;6.20;99.90;;;4.05;100.00;101417.72;5046650;28;20033;-81
2022/02/11 07:45:16;;;;;;;;;;;6.20;99.90;;;4.03;100.00;101426.91;5047519;28;19937;-82
2022/02/11 07:47:43;;;;;;;;;;;6.20;99.90;;;4.05;100.00;101433.03;5046376;28;20566;-81
2022/02/11 07:50:10;;;;;;;;;;;6.30;99.90;;;4.05;100.00;101447.38;5043696;28;19925;-81
2022/02/11 07:52:37;;;;;;;;;;;6.20;99.90;;;4.09;100.00;101453.38;5042285;28;20015;-81
2022/02/11 07:55:05;;;;;;;;;;;6.20;99.90;;;4.06;100.00;101442.84;5043702;28;19925;-81
2022/02/11 07:57:32;;;;;;;;;;;6.20;99.90;;;4.05;100.00;101455.44;5045816;28;20019;-81
2022/02/11 08:00:03;;;;;;;;;;;6.20;99.90;;;4.13;100.00;101476.41;5044287;28;19929;-81
2022/02/11 08:02:40;;;;;;;;;;;6.30;99.90;;;4.12;100.00;101482.78;5045767;28;19928;-82
2022/02/11 08:05:07;;;;;;;;;;;6.20;99.90;;;4.18;100.00;101487.69;5045126;28;20423;-81
2022/02/11 08:07:37;;;;;;;;;;;6.20;99.90;;;4.20;100.00;101480.34;5045085;28;19964;-82
2022/02/11 08:10:04;;;;;;;;;;;6.30;99.90;;;4.25;100.00;101491.63;5045420;28;19935;-81
2022/02/11 08:12:34;;;;;;;;;;;6.30;99.90;;;4.38;100.00;101505.00;5045957;28;19967;-81
2022/02/11 08:15:02;;;;;;;;;;;6.30;99.90;;;4.29;100.00;101506.56;5047074;28;19939;-81
2022/02/11 08:17:29;;;;;;;;;;;6.40;99.90;;;4.33;100.00;101511.72;5048251;28;19928;-82
2022/02/11 08:19:58;;;;;;;;;;;6.40;99.90;;;4.36;100.00;101506.09;5049683;28;19929;-81
2022/02/11 08:22:25;;;;;;;;;;;6.40;99.90;;;4.37;100.00;101523.97;5051305;28;19944;-81
2022/02/11 08:24:52;;;;;;;;;;;6.40;99.90;;;4.36;100.00;101516.88;5049817;28;19936;-82
2022/02/11 08:27:19;;;;;;;;;;;6.40;99.90;;;4.42;100.00;101524.50;5047834;28;19932;-81
2022/02/11 08:29:46;;;;;;;;;;;6.40;99.90;;;4.45;100.00;101518.84;5032185;28;19932;-81
2022/02/11 08:32:13;;;;;;;;;;;6.40;99.90;;;4.48;100.00;101524.00;5033582;28;21830;-81
2022/02/11 08:34:41;;;;;;;;;;;6.50;99.90;;;4.52;100.00;101530.88;5033356;28;20027;-81
2022/02/11 08:37:09;;;;;;;;;;;6.50;99.90;;;4.51;100.00;101550.72;5034375;28;20385;-81
2022/02/11 08:39:38;;;;;;;;;;;6.50;99.90;;;4.52;100.00;101548.88;5033864;28;19929;-82
2022/02/11 08:42:06;;;;;;;;;;;6.50;99.90;;;4.45;100.00;101559.28;5039329;28;20011;-82
2022/02/11 08:44:33;;;;;;;;;;;6.50;99.90;;;4.40;100.00;101556.94;5040587;28;19933;-82
2022/02/11 08:47:01;;;;;;;;;;;6.50;99.90;;;4.44;100.00;101579.13;5046558;28;19924;-82
2022/02/11 08:49:28;;;;;;;;;;;6.50;99.90;;;4.49;100.00;101582.31;5048052;28;19929;-82
2022/02/11 08:51:55;;;;;;;;;;;6.50;99.90;;;4.37;100.00;101581.44;5046329;28;19929;-81
2022/02/11 08:54:23;;;;;;;;;;;6.50;99.90;;;4.39;100.00;101581.31;5048648;28;20679;-82
2022/02/11 08:56:50;;;;;;;;;;;6.50;99.90;;;4.37;100.00;101585.97;5050799;28;19929;-81
2022/02/11 08:59:17;;;;;;;;;;;6.50;99.90;;;4.37;100.00;101604.84;5049214;28;20031;-81
2022/02/11 09:01:44;;;;;;;;;;;6.50;99.90;;;4.41;100.00;101596.38;5048088;28;19929;-82
2022/02/11 09:04:11;;;;;;;;;;;6.50;99.90;;;4.43;100.00;101607.06;5046317;28;19983;-82
2022/02/11 09:06:38;;;;;;;;;;;6.50;99.90;;;4.52;100.00;101613.59;5048838;28;19933;-82
2022/02/11 09:09:08;;;;;;;;;;;6.50;99.90;;;4.54;100.00;101617.03;5051004;28;19925;-79
2022/02/11 09:11:36;;;;;;;;;;;6.60;99.90;;;4.57;100.00;101625.75;5048925;28;19990;-79
2022/02/11 09:14:04;;;;;;;;;;;6.60;99.90;;;4.60;100.00;101627.31;5048335;28;20081;-79
2022/02/11 09:16:31;;;;;;;;;;;6.60;99.90;;;4.49;100.00;101631.72;5047896;28;19933;-79
2022/02/11 09:18:59;;;;;;;;;;;6.60;99.90;;;4.53;100.00;101631.47;5050263;28;20014;-79
2022/02/11 09:21:26;;;;;;;;;;;6.60;99.90;;;4.61;100.00;101646.09;5050720;28;20023;-79
2022/02/11 09:23:53;;;;;;;;;;;6.60;99.90;;;4.62;100.00;101646.94;5048437;28;19928;-79
2022/02/11 09:26:20;;;;;;;;;;;6.60;99.90;;;4.61;100.00;101659.56;5047012;28;19929;-80
2022/02/11 09:28:49;;;;;;;;;;;6.70;99.90;;;4.62;100.00;101658.56;5048984;28;20297;-80
2022/02/11 09:31:16;;;;;;;;;;;6.70;99.90;;;4.67;100.00;101674.41;5050424;28;19983;-80
2022/02/11 09:33:43;;;;;;;;;;;6.70;99.90;;;4.70;100.00;101664.25;5049662;28;20389;-80
2022/02/11 09:36:11;;;;;;;;;;;6.70;99.90;;;4.74;100.00;101677.47;5046648;28;20046;-80
2022/02/11 09:38:38;;;;;;;;;;;6.70;99.90;;;4.74;100.00;101674.78;5046985;28;19939;-80
2022/02/11 09:41:06;;;;;;;;;;;6.70;99.90;;;4.82;100.00;101675.06;5036982;28;19959;-80
2022/02/11 09:43:33;;;;;;;;;;;6.70;99.90;;;4.83;100.00;101684.88;5050163;28;19928;-80
2022/02/11 09:46:02;;;;;;;;;;;6.70;99.90;;;4.78;100.00;101685.25;5044624;28;20040;-79
2022/02/11 09:48:29;;;;;;;;;;;6.80;99.90;;;4.82;100.00;101692.13;5036991;28;19929;-80
2022/02/11 09:50:56;;;;;;;;;;;6.80;99.90;;;4.88;100.00;101693.47;5047655;28;19924;-79
2022/02/11 09:53:28;;;;;;;;;;;6.80;99.90;;;4.92;100.00;101700.34;5049594;28;20015;-79
2022/02/11 09:55:55;;;;;;;;;;;6.80;99.90;;;4.97;100.00;101690.06;5048641;28;19933;-80
2022/02/11 09:58:22;;;;;;;;;;;6.80;99.90;;;5.02;100.00;101698.66;5048567;28;19975;-80
2022/02/11 10:00:52;;;;;;;;;;;6.80;99.90;;;5.07;100.00;101707.25;5048079;28;19935;-80
2022/02/11 10:03:23;;;;;;;;;;;6.90;99.90;;;5.07;100.00;101711.78;5046326;28;19933;-80
2022/02/11 10:05:54;;;;;;;;;;;6.90;99.90;;;5.05;100.00;101709.22;5049245;28;20025;-80
2022/02/11 10:08:23;;;;;;;;;;;6.90;99.90;;;5.11;100.00;101717.81;5047397;28;20336;-79
2022/02/11 10:10:52;;;;;;;;;;;6.90;99.90;;;5.09;100.00;101726.88;5048325;28;19990;-79
2022/02/11 10:13:23;;;;;;;;;;;7.00;99.90;;;5.05;98.88;101722.69;5045115;28;19933;-80
2022/02/11 10:15:54;;;;;;;;;;;6.90;99.90;;;5.07;99.19;101728.84;5046834;28;20014;-79
2022/02/11 10:18:27;;;;;;;;;;;6.90;99.90;;;5.08;98.77;101735.06;5047877;28;19924;-80
2022/02/11 10:20:56;;;;;;;;;;;7.00;99.90;;;5.14;97.89;101744.53;5049271;28;19975;-80
2022/02/11 10:23:25;;;;;;;;;;;7.00;99.90;;;5.22;98.54;101758.31;5046436;28;19928;-79
2022/02/11 10:25:58;;;;;;;;;;;7.00;99.90;;;5.24;97.39;101756.38;5044464;28;19995;-79
2022/02/11 10:28:27;;;;;;;;;;;7.00;99.90;;;5.25;97.29;101760.75;5047369;28;19936;-79
2022/02/11 10:31:09;;;;;;;;;;;7.10;99.90;;;5.22;98.26;101778.06;5049176;28;19929;-79
2022/02/11 10:33:52;;;;;;;;;;;7.10;99.90;;;5.29;96.92;101781.13;5048085;28;19933;-79
2022/02/11 10:36:20;;;;;;;;;;;7.10;99.90;;;5.37;97.69;101785.94;5042742;28;19929;-79
2022/02/11 10:39:00;;;;;;;;;;;7.20;99.90;;;5.45;97.60;101803.28;5046219;28;19933;-79
2022/02/11 10:41:27;;;;;;;;;;;7.20;99.90;;;5.58;97.09;101797.78;5047645;28;19929;-79
2022/02/11 10:43:58;;;;;;;;;;;7.30;99.90;;;5.68;95.27;101792.50;5048352;28;19972;-80
2022/02/11 10:46:25;;;;;;;;;;;7.30;99.90;;;5.65;93.59;101815.22;5044401;28;19928;-79
2022/02/11 10:48:54;;;;;;;;;;;7.30;99.60;;;5.67;94.58;101806.97;5046543;28;19928;-79
2022/02/11 10:51:23;;;;;;;;;;;7.30;99.90;;;5.68;91.08;101819.50;5047456;28;20035;-80
2022/02/11 10:53:50;;;;;;;;;;;7.40;99.90;;;5.64;92.53;101813.50;5048809;28;19963;-79
2022/02/11 10:56:17;;;;;;;;;;;7.50;99.90;;;5.63;92.24;101811.75;5046768;28;20027;-79
2022/02/11 10:58:56;;;;;;;;;;;7.40;99.00;;;5.69;92.61;101826.63;5044645;28;19957;-80
2022/02/11 11:01:28;;;;;;;;;;;7.40;99.90;;;5.67;91.96;101831.28;5046985;28;19928;-80
2022/02/11 11:03:58;;;;;;;;;;;7.40;99.90;;;5.68;89.29;101835.72;5033526;28;19972;-79
2022/02/11 11:06:26;;;;;;;;;;;7.50;99.50;;;5.80;91.26;101833.88;5045355;28;19935;-81
2022/02/11 11:08:57;;;;;;;;;;;7.50;99.00;;;5.78;89.98;101838.56;5045303;28;19974;-80
2022/02/11 11:11:25;;;;;;;;;;;7.50;98.70;;;5.76;90.64;101843.22;5045619;28;19936;-80
2022/02/11 11:13:52;;;;;;;;;;;7.60;99.80;;;5.73;90.40;101838.94;5046400;28;19929;-80
2022/02/11 11:16:20;;;;;;;;;;;7.50;99.40;;;5.76;90.73;101848.63;5044273;28;20347;-80
2022/02/11 11:18:48;;;;;;;;;;;7.50;99.90;;;5.75;91.61;101847.78;5045179;28;19925;-80
2022/02/11 11:21:17;;;;;;;;;;;7.50;99.70;;;5.75;91.12;101842.38;5046306;28;20013;-80
2022/02/11 11:23:54;;;;;;;;;;;7.50;99.30;;;5.71;88.81;101845.41;5044170;28;19929;-80
2022/02/11 11:26:33;;;;;;;;;;;7.50;97.80;;;5.79;90.55;101853.78;5042934;28;19932;-80
2022/02/11 11:29:05;;;;;;;;;;;7.60;99.20;;;5.80;88.04;101860.91;5044896;28;20407;-80
2022/02/11 11:31:32;;;;;;;;;;;7.50;97.10;;;5.77;87.96;101862.00;5042859;28;20341;-80
2022/02/11 11:34:32;;;;;;;;;;;7.60;97.30;;;5.84;89.67;101862.38;5044851;28;19936;-80
2022/02/11 11:37:09;;;;;;;;;;;7.50;98.70;;;5.85;87.19;101873.06;5057098;28;19930;-80
2022/02/11 11:39:37;;;;;;;;;;;7.60;98.40;;;5.85;87.11;101874.91;5034358;28;20404;-80
2022/02/11 11:42:09;;;;;;;;;;;7.60;97.90;;;5.86;87.43;101877.50;5048563;28;19959;-80
2022/02/11 11:44:44;;;;;;;;;;;7.60;97.40;;;5.92;89.60;101886.09;5047536;28;20307;-81
2022/02/11 11:47:16;;;;;;;;;;;7.70;98.60;;;6.04;89.28;101890.56;5046038;28;20446;-80
2022/02/11 11:49:48;;;;;;;;;;;7.70;97.80;;;6.12;88.67;101888.13;5059534;23;20365;-87
2022/02/11 11:52:17;;;;;;;;;;;7.80;98.10;;;6.17;87.35;101891.31;5047613;28;19990;-88
2022/02/11 11:54:44;;;;;;;;;;;7.80;97.90;;;6.10;85.70;101895.50;5055302;28;19960;-87
2022/02/11 11:57:14;;;;;;;;;;;7.80;98.10;;;6.02;86.18;101906.06;5060761;28;19970;-88
2022/02/11 11:59:46;;;;;;;;;;;7.80;96.80;;;6.00;85.56;101902.63;5051804;28;19929;-88
2022/02/11 12:02:17;;;;;;;;;;;7.70;95.10;;;6.04;83.15;101904.09;5041184;28;20278;-88
2022/02/11 12:04:54;;;;;;;;;;;7.80;94.90;;;6.10;83.41;101906.31;5045546;28;19940;-88
2022/02/11 12:07:23;;;;;;;;;;;7.80;93.80;;;6.14;81.93;101913.19;5056718;28;19929;-88
2022/02/11 12:09:53;;;;;;;;;;;7.80;94.00;;;6.13;82.00;101918.69;5061461;28;20476;-88
2022/02/11 12:12:22;;;;;;;;;;;7.80;93.70;;;6.07;80.19;101903.81;5060938;28;19936;-88
2022/02/11 12:14:51;;;;;;;;;;;7.80;93.70;;;5.96;79.04;101909.22;5049346;28;20084;-88
2022/02/11 12:17:19;;;;;;;;;;;7.80;93.10;;;5.91;78.57;101916.81;5060076;28;20308;-88
2022/02/11 12:19:47;;;;;;;;;;;7.80;92.50;;;5.96;78.24;101920.91;5056504;28;20031;-88
2022/02/11 12:22:15;;;;;;;;;;;7.80;92.20;;;5.93;78.31;101931.06;5038356;28;20408;-89
2022/02/11 12:27:49;;;;;;;;;;;7.70;90.20;;;5.78;77.26;101933.94;5009724;28;20043;-88
2022/02/11 12:30:18;;;;;;;;;;;7.70;91.90;;;5.71;74.25;101927.28;5009380;28;19945;-88
2022/02/11 12:32:46;;;;;;;;;;;7.70;89.30;;;5.72;73.37;101925.47;5035171;28;19932;-88
2022/02/11 12:35:15;;;;;;;;;;;7.60;88.90;;;5.77;75.62;101928.66;5056296;28;20518;-87
2022/02/11 12:37:43;;;;;;;;;;;7.60;89.40;;;5.85;73.75;101923.56;5060487;28;20404;-88
2022/02/11 12:40:15;;;;;;;;;;;7.70;90.30;;;5.93;74.09;101920.25;5063079;28;20403;-88
2022/02/11 12:42:44;;;;;;;;;;;7.70;90.30;;;6.01;75.18;101931.34;5064575;28;20001;-88
2022/02/11 12:45:21;;;;;;;;;;;7.70;90.10;;;6.03;74.21;101922.13;5046387;28;20037;-88
2022/02/11 12:47:51;;;;;;;;;;;7.80;90.30;;;6.14;72.77;101925.84;5052506;28;19940;-87
2022/02/11 12:50:21;;;;;;;;;;;7.80;88.90;;;6.20;70.70;101931.59;5044174;28;19940;-88
2022/02/11 12:52:50;;;;;;;;;;;7.90;88.50;;;6.18;72.28;101940.84;5050222;28;19929;-88
2022/02/11 12:55:21;;;;;;;;;;;7.90;88.30;;;6.21;70.45;101924.38;5043179;28;20608;-90
2022/02/11 12:57:51;;;;;;;;;;;7.90;89.10;;;6.26;72.27;101927.56;5056139;28;19928;-90
2022/02/11 13:00:20;;;;;;;;;;;7.90;89.60;;;6.29;71.63;101921.06;5047735;28;19935;-91
2022/02/11 13:02:50;;;;;;;;;;;8.00;87.80;;;6.29;70.62;101931.88;5059329;28;19935;-89
2022/02/11 13:05:20;;;;;;;;;;;8.00;85.50;;;6.31;70.72;101927.22;5032941;28;19928;-90
2022/02/11 13:07:49;;;;;;;;;;;8.00;86.20;;;6.36;70.62;101933.97;5048693;28;19968;-90
2022/02/11 13:10:22;;;;;;;;;;;8.00;85.50;;;6.37;70.99;101937.53;5019048;28;20429;-90
2022/02/11 13:12:51;;;;;;;;;;;8.00;84.60;;;6.40;71.81;101946.28;5024062;28;19975;-89
2022/02/11 13:15:20;;;;;;;;;;;8.00;86.40;;;6.40;68.27;101950.81;5058641;28;19929;-91
2022/02/11 13:17:48;;;;;;;;;;;8.00;83.50;;;6.42;68.79;101948.84;5055496;28;20591;-89
2022/02/11 13:20:18;;;;;;;;;;;8.10;86.30;;;6.41;70.33;101947.13;5020480;28;20297;-89
2022/02/11 13:22:46;;;;;;;;;;;8.00;84.80;;;6.44;69.25;101950.44;5061262;28;19925;-90
2022/02/11 13:25:17;;;;;;;;;;;8.00;85.30;;;6.51;72.51;101958.94;5055761;28;19957;-89
2022/02/11 13:27:48;;;;;;;;;;;8.10;87.30;;;6.53;74.21;101956.97;5041235;28;20312;-90
2022/02/11 13:30:17;;;;;;;;;;;8.10;88.40;;;6.52;72.38;101966.06;5061642;28;20102;-89
2022/02/11 13:32:44;;;;;;;;;;;8.10;87.80;;;6.51;68.83;101975.19;5068544;28;19979;-89
2022/02/11 13:35:14;;;;;;;;;;;8.10;86.20;;;6.47;70.49;101984.50;5032114;28;20450;-89
2022/02/11 13:37:42;;;;;;;;;;;8.10;86.60;;;6.39;68.75;101985.09;5049628;28;20468;-89
2022/02/11 13:40:15;;;;;;;;;;;8.10;83.80;;;6.34;70.33;101997.25;5028868;28;20347;-89
2022/02/11 13:42:52;;;;;;;;;;;8.10;85.60;;;6.33;72.13;101987.44;5058110;28;19975;-88
2022/02/11 13:45:21;;;;;;;;;;;8.10;87.20;;;6.34;73.79;101994.56;5049095;28;19928;-88
2022/02/11 13:48:00;;;;;;;;;;;8.10;88.30;;;6.32;74.30;101996.50;5034765;28;19928;-89
2022/02/11 13:50:28;;;;;;;;;;;8.10;88.20;;;6.28;73.55;102008.56;5049056;28;19929;-89
2022/02/11 13:53:06;;;;;;;;;;;8.00;87.70;;;6.28;74.93;102011.25;5042559;28;19979;-89
2022/02/11 13:55:34;;;;;;;;;;;8.00;88.30;;;6.26;74.93;102017.66;5042439;28;19929;-88
2022/02/11 13:58:17;;;;;;;;;;;8.00;88.60;;;6.25;74.32;102021.34;5048891;28;19939;-89
2022/02/11 14:00:46;;;;;;;;;;;8.00;88.10;;;6.22;73.16;102015.31;5046319;28;20036;-90
2022/02/11 14:03:21;;;;;;;;;;;8.00;88.50;;;6.22;75.60;102032.38;5054607;28;19975;-89
2022/02/11 14:05:49;;;;;;;;;;;8.00;90.00;;;6.17;72.46;102025.59;5062829;28;19928;-89
2022/02/11 14:08:18;;;;;;;;;;;8.10;87.90;;;6.12;72.26;102028.66;5053106;28;19935;-89
2022/02/11 14:10:46;;;;;;;;;;;8.00;86.10;;;6.13;73.81;102022.31;5052465;28;19936;-90
2022/02/11 14:13:14;;;;;;;;;;;7.90;86.60;;;6.16;71.75;102030.16;5030022;28;20630;-89
2022/02/11 14:15:41;;;;;;;;;;;7.90;87.40;;;6.21;70.57;102024.41;5041315;28;19948;-90
2022/02/11 14:18:10;;;;;;;;;;;7.90;86.90;;;6.20;72.06;102038.88;5039170;28;19932;-89
2022/02/11 14:20:38;;;;;;;;;;;7.90;86.80;;;6.18;70.50;102047.13;5059131;28;19929;-89
2022/02/11 14:23:13;;;;;;;;;;;7.90;85.50;;;6.11;68.58;102039.59;5041752;28;19964;-89
2022/02/11 14:25:42;;;;;;;;;;;7.90;84.70;;;6.11;69.85;102035.06;5031004;28;19986;-86
2022/02/11 14:28:11;;;;;;;;;;;7.90;85.00;;;6.09;70.19;102044.25;5042994;28;19956;-90